sensor_id;sensor_type;location;lat;lon;timestamp;temperature;humidity
14699;DHT22;7439;50.804;4.602;2022-07-10T00:00:09;11.90;1.00
14699;DHT22;7439;50.804;4.602;2022-07-10T00:02:36;11.90;1.00
14699;DHT22;7439;50.804;4.602;2022-07-10T00:05:06;11.80;1.00
14699;DHT22;7439;50.804;4.602;2022-07-10T00:07:33;11.70;1.00
14699;DHT22;7439;50.804;4.602;2022-07-10T00:10:00;11.50;35.10
14699;DHT22;7439;50.804;4.602;2022-07-10T00:12:27;11.50;92.90
14699;DHT22;7439;50.804;4.602;2022-07-10T00:14:54;11.40;99.90
14699;DHT22;7439;50.804;4.602;2022-07-10T00:17:21;11.30;99.90
14699;DHT22;7439;50.804;4.602;2022-07-10T00:19:48;11.30;99.90
14699;DHT22;7439;50.804;4.602;2022-07-10T00:22:17;11.20;99.90
14699;DHT22;7439;50.804;4.602;2022-07-10T00:24:44;11.20;99.90
14699;DHT22;7439;50.804;4.602;2022-07-10T00:27:12;11.10;99.90
14699;DHT22;7439;50.804;4.602;2022-07-10T00:29:39;11.20;99.90
14699;DHT22;7439;50.804;4.602;2022-07-10T00:32:07;11.10;99.90
14699;DHT22;7439;50.804;4.602;2022-07-10T00:34:35;11.00;99.90
14699;DHT22;7439;50.804;4.602;2022-07-10T00:37:02;10.90;99.90
14699;DHT22;7439;50.804;4.602;2022-07-10T00:39:31;10.90;99.90
14699;DHT22;7439;50.804;4.602;2022-07-10T00:42:06;10.80;1.00
14699;DHT22;7439;50.804;4.602;2022-07-10T00:44:35;10.80;1.00
14699;DHT22;7439;50.804;4.602;2022-07-10T00:47:03;10.70;1.00
14699;DHT22;7439;50.804;4.602;2022-07-10T00:49:30;10.60;1.00
14699;DHT22;7439;50.804;4.602;2022-07-10T00:51:58;10.60;1.00
14699;DHT22;7439;50.804;4.602;2022-07-10T00:54:26;10.60;1.00
14699;DHT22;7439;50.804;4.602;2022-07-10T00:56:55;10.60;1.00
14699;DHT22;7439;50.804;4.602;2022-07-10T00:59:24;10.60;1.00
14699;DHT22;7439;50.804;4.602;2022-07-10T01:01:52;10.50;1.00
14699;DHT22;7439;50.804;4.602;2022-07-10T01:04:19;10.50;1.00
14699;DHT22;7439;50.804;4.602;2022-07-10T01:06:46;10.40;1.00
14699;DHT22;7439;50.804;4.602;2022-07-10T01:09:13;10.40;1.00
14699;DHT22;7439;50.804;4.602;2022-07-10T01:11:40;10.40;1.00
14699;DHT22;7439;50.804;4.602;2022-07-10T01:14:09;10.40;1.00
14699;DHT22;7439;50.804;4.602;2022-07-10T01:16:37;10.40;1.00
14699;DHT22;7439;50.804;4.602;2022-07-10T01:19:04;10.40;1.00
14699;DHT22;7439;50.804;4.602;2022-07-10T01:21:34;10.30;1.00
14699;DHT22;7439;50.804;4.602;2022-07-10T01:24:05;10.30;1.00
14699;DHT22;7439;50.804;4.602;2022-07-10T01:26:33;10.30;1.00
14699;DHT22;7439;50.804;4.602;2022-07-10T01:29:03;10.20;6.40
14699;DHT22;7439;50.804;4.602;2022-07-10T01:31:30;10.10;10.00
14699;DHT22;7439;50.804;4.602;2022-07-10T01:33:59;10.10;9.50
14699;DHT22;7439;50.804;4.602;2022-07-10T01:36:28;10.20;91.90
14699;DHT22;7439;50.804;4.602;2022-07-10T01:38:57;10.10;93.00
14699;DHT22;7439;50.804;4.602;2022-07-10T01:41:25;10.00;99.90
14699;DHT22;7439;50.804;4.602;2022-07-10T01:43:53;10.00;99.90
14699;DHT22;7439;50.804;4.602;2022-07-10T01:46:20;10.00;99.90
14699;DHT22;7439;50.804;4.602;2022-07-10T01:48:47;9.90;99.90
14699;DHT22;7439;50.804;4.602;2022-07-10T01:51:15;9.90;99.90
14699;DHT22;7439;50.804;4.602;2022-07-10T01:53:42;9.90;99.90
14699;DHT22;7439;50.804;4.602;2022-07-10T01:56:12;9.90;99.90
14699;DHT22;7439;50.804;4.602;2022-07-10T01:58:40;9.80;99.90
14699;DHT22;7439;50.804;4.602;2022-07-10T02:01:16;9.80;99.90
14699;DHT22;7439;50.804;4.602;2022-07-10T02:03:48;9.80;99.90
14699;DHT22;7439;50.804;4.602;2022-07-10T02:06:33;9.80;99.90
14699;DHT22;7439;50.804;4.602;2022-07-10T02:09:00;9.80;99.90
14699;DHT22;7439;50.804;4.602;2022-07-10T02:11:28;9.70;99.90
14699;DHT22;7439;50.804;4.602;2022-07-10T02:13:55;9.70;99.90
14699;DHT22;7439;50.804;4.602;2022-07-10T02:16:22;9.70;99.90
14699;DHT22;7439;50.804;4.602;2022-07-10T02:18:49;9.60;99.90
14699;DHT22;7439;50.804;4.602;2022-07-10T02:21:16;9.60;99.90
14699;DHT22;7439;50.804;4.602;2022-07-10T02:23:43;9.60;1.00
14699;DHT22;7439;50.804;4.602;2022-07-10T02:26:10;9.60;1.00
14699;DHT22;7439;50.804;4.602;2022-07-10T02:28:38;9.50;1.00
14699;DHT22;7439;50.804;4.602;2022-07-10T02:31:05;9.50;1.00
14699;DHT22;7439;50.804;4.602;2022-07-10T02:33:34;9.50;1.00
14699;DHT22;7439;50.804;4.602;2022-07-10T02:36:02;9.40;1.00
14699;DHT22;7439;50.804;4.602;2022-07-10T02:38:29;9.40;1.00
14699;DHT22;7439;50.804;4.602;2022-07-10T02:40:56;9.40;1.00
14699;DHT22;7439;50.804;4.602;2022-07-10T02:43:23;9.60;1.00
14699;DHT22;7439;50.804;4.602;2022-07-10T02:45:52;9.40;1.00
14699;DHT22;7439;50.804;4.602;2022-07-10T02:48:19;9.40;1.00
14699;DHT22;7439;50.804;4.602;2022-07-10T02:50:46;9.40;1.00
14699;DHT22;7439;50.804;4.602;2022-07-10T02:53:13;9.40;1.00
14699;DHT22;7439;50.804;4.602;2022-07-10T02:55:40;9.40;1.00
14699;DHT22;7439;50.804;4.602;2022-07-10T02:58:07;9.30;1.00
14699;DHT22;7439;50.804;4.602;2022-07-10T03:00:35;9.30;1.00
14699;DHT22;7439;50.804;4.602;2022-07-10T03:03:03;9.30;1.00
14699;DHT22;7439;50.804;4.602;2022-07-10T03:05:30;9.20;1.00
14699;DHT22;7439;50.804;4.602;2022-07-10T03:07:58;9.40;1.00
14699;DHT22;7439;50.804;4.602;2022-07-10T03:10:25;9.30;1.00
14699;DHT22;7439;50.804;4.602;2022-07-10T03:12:52;9.30;1.00
14699;DHT22;7439;50.804;4.602;2022-07-10T03:15:19;9.20;1.00
14699;DHT22;7439;50.804;4.602;2022-07-10T03:17:46;9.20;1.00
14699;DHT22;7439;50.804;4.602;2022-07-10T03:20:14;9.20;1.00
14699;DHT22;7439;50.804;4.602;2022-07-10T03:22:41;9.10;1.00
14699;DHT22;7439;50.804;4.602;2022-07-10T03:25:09;9.10;1.00
14699;DHT22;7439;50.804;4.602;2022-07-10T03:27:36;9.10;1.00
14699;DHT22;7439;50.804;4.602;2022-07-10T03:30:04;9.10;1.00
14699;DHT22;7439;50.804;4.602;2022-07-10T03:32:32;9.10;1.00
14699;DHT22;7439;50.804;4.602;2022-07-10T03:34:59;9.10;1.00
14699;DHT22;7439;50.804;4.602;2022-07-10T03:37:28;9.10;1.00
14699;DHT22;7439;50.804;4.602;2022-07-10T03:39:55;9.10;1.00
14699;DHT22;7439;50.804;4.602;2022-07-10T03:42:22;9.10;1.00
14699;DHT22;7439;50.804;4.602;2022-07-10T03:44:49;9.10;24.20
14699;DHT22;7439;50.804;4.602;2022-07-10T03:47:16;9.10;51.50
14699;DHT22;7439;50.804;4.602;2022-07-10T03:49:43;9.10;48.60
14699;DHT22;7439;50.804;4.602;2022-07-10T03:52:12;9.10;94.70
14699;DHT22;7439;50.804;4.602;2022-07-10T03:54:40;9.10;95.60
14699;DHT22;7439;50.804;4.602;2022-07-10T03:57:07;9.00;99.90
14699;DHT22;7439;50.804;4.602;2022-07-10T03:59:52;9.00;99.90
14699;DHT22;7439;50.804;4.602;2022-07-10T04:02:19;9.00;99.90
14699;DHT22;7439;50.804;4.602;2022-07-10T04:04:46;9.00;99.90
14699;DHT22;7439;50.804;4.602;2022-07-10T04:07:12;9.00;99.90
14699;DHT22;7439;50.804;4.602;2022-07-10T04:09:41;9.10;99.90
14699;DHT22;7439;50.804;4.602;2022-07-10T04:12:08;9.10;99.90
14699;DHT22;7439;50.804;4.602;2022-07-10T04:14:35;9.20;99.90
14699;DHT22;7439;50.804;4.602;2022-07-10T04:17:02;9.10;99.90
14699;DHT22;7439;50.804;4.602;2022-07-10T04:19:30;9.20;99.90
14699;DHT22;7439;50.804;4.602;2022-07-10T04:21:57;9.20;99.90
14699;DHT22;7439;50.804;4.602;2022-07-10T04:24:24;9.20;99.90
14699;DHT22;7439;50.804;4.602;2022-07-10T04:26:52;9.20;99.90
14699;DHT22;7439;50.804;4.602;2022-07-10T04:29:19;9.20;99.90
14699;DHT22;7439;50.804;4.602;2022-07-10T04:31:46;9.30;99.90
14699;DHT22;7439;50.804;4.602;2022-07-10T04:34:13;9.30;99.90
14699;DHT22;7439;50.804;4.602;2022-07-10T04:36:40;9.30;99.90
14699;DHT22;7439;50.804;4.602;2022-07-10T04:39:07;9.40;99.90
14699;DHT22;7439;50.804;4.602;2022-07-10T04:41:34;9.50;99.90
14699;DHT22;7439;50.804;4.602;2022-07-10T04:44:03;9.50;99.90
14699;DHT22;7439;50.804;4.602;2022-07-10T04:46:30;9.60;99.90
14699;DHT22;7439;50.804;4.602;2022-07-10T04:48:57;9.60;99.90
14699;DHT22;7439;50.804;4.602;2022-07-10T04:51:25;9.70;99.90
14699;DHT22;7439;50.804;4.602;2022-07-10T04:53:52;9.80;99.90
14699;DHT22;7439;50.804;4.602;2022-07-10T04:56:19;9.90;99.90
14699;DHT22;7439;50.804;4.602;2022-07-10T04:58:47;9.90;99.90
14699;DHT22;7439;50.804;4.602;2022-07-10T05:01:15;9.90;99.90
14699;DHT22;7439;50.804;4.602;2022-07-10T05:03:42;10.00;99.90
14699;DHT22;7439;50.804;4.602;2022-07-10T05:06:09;10.00;99.90
14699;DHT22;7439;50.804;4.602;2022-07-10T05:08:36;10.20;1.00
14699;DHT22;7439;50.804;4.602;2022-07-10T05:11:03;10.30;1.00
14699;DHT22;7439;50.804;4.602;2022-07-10T05:13:31;10.50;1.00
14699;DHT22;7439;50.804;4.602;2022-07-10T05:15:57;10.60;1.00
14699;DHT22;7439;50.804;4.602;2022-07-10T05:18:26;10.70;1.00
14699;DHT22;7439;50.804;4.602;2022-07-10T05:20:53;10.80;99.90
14699;DHT22;7439;50.804;4.602;2022-07-10T05:23:20;10.90;99.90
14699;DHT22;7439;50.804;4.602;2022-07-10T05:25:47;11.00;99.90
14699;DHT22;7439;50.804;4.602;2022-07-10T05:28:14;11.20;99.90
14699;DHT22;7439;50.804;4.602;2022-07-10T05:30:41;11.30;99.90
14699;DHT22;7439;50.804;4.602;2022-07-10T05:33:08;11.40;97.40
14699;DHT22;7439;50.804;4.602;2022-07-10T05:35:37;11.50;1.00
14699;DHT22;7439;50.804;4.602;2022-07-10T05:38:04;11.60;1.00
14699;DHT22;7439;50.804;4.602;2022-07-10T05:40:31;11.80;1.00
14699;DHT22;7439;50.804;4.602;2022-07-10T05:42:58;11.90;1.00
14699;DHT22;7439;50.804;4.602;2022-07-10T05:45:26;12.00;1.00
14699;DHT22;7439;50.804;4.602;2022-07-10T05:47:53;12.10;1.00
14699;DHT22;7439;50.804;4.602;2022-07-10T05:50:20;12.20;99.90
14699;DHT22;7439;50.804;4.602;2022-07-10T05:52:48;12.30;99.90
14699;DHT22;7439;50.804;4.602;2022-07-10T05:55:15;12.40;99.90
14699;DHT22;7439;50.804;4.602;2022-07-10T05:57:42;12.60;99.90
14699;DHT22;7439;50.804;4.602;2022-07-10T06:00:10;12.60;99.90
14699;DHT22;7439;50.804;4.602;2022-07-10T06:02:37;12.80;99.90
14699;DHT22;7439;50.804;4.602;2022-07-10T06:05:05;12.90;99.90
14699;DHT22;7439;50.804;4.602;2022-07-10T06:07:32;13.10;99.90
14699;DHT22;7439;50.804;4.602;2022-07-10T06:10:01;13.20;15.20
14699;DHT22;7439;50.804;4.602;2022-07-10T06:12:28;13.40;46.10
14699;DHT22;7439;50.804;4.602;2022-07-10T06:14:56;13.60;1.00
14699;DHT22;7439;50.804;4.602;2022-07-10T06:17:23;13.80;1.00
14699;DHT22;7439;50.804;4.602;2022-07-10T06:19:50;14.00;1.00
14699;DHT22;7439;50.804;4.602;2022-07-10T06:22:17;14.10;99.90
14699;DHT22;7439;50.804;4.602;2022-07-10T06:25:02;14.20;99.90
14699;DHT22;7439;50.804;4.602;2022-07-10T06:27:29;14.30;99.90
14699;DHT22;7439;50.804;4.602;2022-07-10T06:29:57;14.40;99.90
14699;DHT22;7439;50.804;4.602;2022-07-10T06:32:25;14.40;10.30
14699;DHT22;7439;50.804;4.602;2022-07-10T06:34:52;14.60;1.00
14699;DHT22;7439;50.804;4.602;2022-07-10T06:37:20;14.70;1.00
14699;DHT22;7439;50.804;4.602;2022-07-10T06:39:47;14.90;1.00
14699;DHT22;7439;50.804;4.602;2022-07-10T06:42:16;15.10;1.00
14699;DHT22;7439;50.804;4.602;2022-07-10T06:44:44;15.30;1.00
14699;DHT22;7439;50.804;4.602;2022-07-10T06:47:12;15.50;1.00
14699;DHT22;7439;50.804;4.602;2022-07-10T06:49:59;15.60;1.00
14699;DHT22;7439;50.804;4.602;2022-07-10T06:52:26;15.90;1.00
14699;DHT22;7439;50.804;4.602;2022-07-10T06:54:53;16.10;99.90
14699;DHT22;7439;50.804;4.602;2022-07-10T06:57:22;16.10;99.90
14699;DHT22;7439;50.804;4.602;2022-07-10T06:59:49;16.20;99.90
14699;DHT22;7439;50.804;4.602;2022-07-10T07:02:16;16.40;99.90
14699;DHT22;7439;50.804;4.602;2022-07-10T07:04:44;16.50;99.90
14699;DHT22;7439;50.804;4.602;2022-07-10T07:07:11;16.60;99.90
14699;DHT22;7439;50.804;4.602;2022-07-10T07:09:39;16.90;99.90
14699;DHT22;7439;50.804;4.602;2022-07-10T07:12:07;17.00;99.90
14699;DHT22;7439;50.804;4.602;2022-07-10T07:14:36;17.00;99.90
14699;DHT22;7439;50.804;4.602;2022-07-10T07:17:04;17.10;99.90
14699;DHT22;7439;50.804;4.602;2022-07-10T07:19:34;17.20;99.90
14699;DHT22;7439;50.804;4.602;2022-07-10T07:22:15;17.40;99.90
14699;DHT22;7439;50.804;4.602;2022-07-10T07:25:00;17.40;99.90
14699;DHT22;7439;50.804;4.602;2022-07-10T07:27:27;17.50;99.90
14699;DHT22;7439;50.804;4.602;2022-07-10T07:29:55;17.60;99.90
14699;DHT22;7439;50.804;4.602;2022-07-10T07:32:22;17.70;80.40
14699;DHT22;7439;50.804;4.602;2022-07-10T07:34:49;17.80;87.60
14699;DHT22;7439;50.804;4.602;2022-07-10T07:37:16;17.80;48.40
14699;DHT22;7439;50.804;4.602;2022-07-10T07:39:43;17.90;56.50
14699;DHT22;7439;50.804;4.602;2022-07-10T07:42:10;18.10;33.10
14699;DHT22;7439;50.804;4.602;2022-07-10T07:44:37;18.30;53.90
14699;DHT22;7439;50.804;4.602;2022-07-10T07:47:06;18.40;34.00
14699;DHT22;7439;50.804;4.602;2022-07-10T07:49:33;18.50;3.90
14699;DHT22;7439;50.804;4.602;2022-07-10T07:52:00;18.80;1.00
14699;DHT22;7439;50.804;4.602;2022-07-10T07:54:27;19.10;1.00
14699;DHT22;7439;50.804;4.602;2022-07-10T07:56:54;19.40;1.00
14699;DHT22;7439;50.804;4.602;2022-07-10T07:59:21;19.70;1.00
14699;DHT22;7439;50.804;4.602;2022-07-10T08:01:48;19.90;1.00
14699;DHT22;7439;50.804;4.602;2022-07-10T08:04:16;19.90;1.00
14699;DHT22;7439;50.804;4.602;2022-07-10T08:06:43;19.80;1.00
14699;DHT22;7439;50.804;4.602;2022-07-10T08:09:10;19.80;1.00
14699;DHT22;7439;50.804;4.602;2022-07-10T08:11:38;19.80;1.00
14699;DHT22;7439;50.804;4.602;2022-07-10T08:14:05;19.80;1.00
14699;DHT22;7439;50.804;4.602;2022-07-10T08:16:32;19.90;1.00
14699;DHT22;7439;50.804;4.602;2022-07-10T08:18:59;20.00;1.00
14699;DHT22;7439;50.804;4.602;2022-07-10T08:21:27;19.90;1.00
14699;DHT22;7439;50.804;4.602;2022-07-10T08:23:55;20.00;1.00
14699;DHT22;7439;50.804;4.602;2022-07-10T08:26:23;19.90;1.00
14699;DHT22;7439;50.804;4.602;2022-07-10T08:28:49;20.00;1.00
14699;DHT22;7439;50.804;4.602;2022-07-10T08:31:17;20.10;1.00
14699;DHT22;7439;50.804;4.602;2022-07-10T08:33:44;20.20;1.00
14699;DHT22;7439;50.804;4.602;2022-07-10T08:36:12;20.40;1.00
14699;DHT22;7439;50.804;4.602;2022-07-10T08:38:40;20.60;1.00
14699;DHT22;7439;50.804;4.602;2022-07-10T08:41:08;20.60;1.00
14699;DHT22;7439;50.804;4.602;2022-07-10T08:43:37;20.80;1.00
14699;DHT22;7439;50.804;4.602;2022-07-10T08:46:05;21.00;1.00
14699;DHT22;7439;50.804;4.602;2022-07-10T08:48:32;21.30;1.00
14699;DHT22;7439;50.804;4.602;2022-07-10T08:51:05;21.50;1.00
14699;DHT22;7439;50.804;4.602;2022-07-10T08:53:34;21.80;1.00
14699;DHT22;7439;50.804;4.602;2022-07-10T08:56:04;22.00;1.00
14699;DHT22;7439;50.804;4.602;2022-07-10T08:58:33;22.10;1.00
14699;DHT22;7439;50.804;4.602;2022-07-10T09:01:01;22.20;1.00
14699;DHT22;7439;50.804;4.602;2022-07-10T09:03:29;22.20;1.00
14699;DHT22;7439;50.804;4.602;2022-07-10T09:05:57;22.50;1.00
14699;DHT22;7439;50.804;4.602;2022-07-10T09:08:24;22.30;1.00
14699;DHT22;7439;50.804;4.602;2022-07-10T09:10:59;21.30;1.00
14699;DHT22;7439;50.804;4.602;2022-07-10T09:13:50;21.00;1.00
14699;DHT22;7439;50.804;4.602;2022-07-10T09:16:24;21.10;1.00
14699;DHT22;7439;50.804;4.602;2022-07-10T09:18:51;21.20;1.00
14699;DHT22;7439;50.804;4.602;2022-07-10T09:21:18;21.50;1.00
14699;DHT22;7439;50.804;4.602;2022-07-10T09:23:46;21.50;1.00
14699;DHT22;7439;50.804;4.602;2022-07-10T09:26:14;21.60;1.00
14699;DHT22;7439;50.804;4.602;2022-07-10T09:28:42;21.80;1.00
14699;DHT22;7439;50.804;4.602;2022-07-10T09:31:10;21.90;1.00
14699;DHT22;7439;50.804;4.602;2022-07-10T09:33:40;22.00;1.00
14699;DHT22;7439;50.804;4.602;2022-07-10T09:36:09;22.20;1.00
14699;DHT22;7439;50.804;4.602;2022-07-10T09:38:54;22.40;1.00
14699;DHT22;7439;50.804;4.602;2022-07-10T09:41:25;22.40;1.00
14699;DHT22;7439;50.804;4.602;2022-07-10T09:43:53;22.20;1.00
14699;DHT22;7439;50.804;4.602;2022-07-10T09:46:24;22.30;1.00
14699;DHT22;7439;50.804;4.602;2022-07-10T09:49:07;22.40;1.00
14699;DHT22;7439;50.804;4.602;2022-07-10T09:51:36;22.90;1.00
14699;DHT22;7439;50.804;4.602;2022-07-10T09:54:04;24.20;1.00
14699;DHT22;7439;50.804;4.602;2022-07-10T09:56:38;24.70;1.00
14699;DHT22;7439;50.804;4.602;2022-07-10T09:59:08;25.00;1.00
14699;DHT22;7439;50.804;4.602;2022-07-10T10:01:43;26.10;1.00
14699;DHT22;7439;50.804;4.602;2022-07-10T10:04:11;25.90;1.00
14699;DHT22;7439;50.804;4.602;2022-07-10T10:06:40;25.50;1.00
14699;DHT22;7439;50.804;4.602;2022-07-10T10:09:12;24.80;1.00
14699;DHT22;7439;50.804;4.602;2022-07-10T10:11:44;24.30;1.00
14699;DHT22;7439;50.804;4.602;2022-07-10T10:14:15;23.80;1.00
14699;DHT22;7439;50.804;4.602;2022-07-10T10:16:47;23.70;1.00
14699;DHT22;7439;50.804;4.602;2022-07-10T10:19:14;24.00;1.00
14699;DHT22;7439;50.804;4.602;2022-07-10T10:22:00;23.90;1.00
14699;DHT22;7439;50.804;4.602;2022-07-10T10:24:31;23.80;1.00
14699;DHT22;7439;50.804;4.602;2022-07-10T10:26:58;24.10;1.00
14699;DHT22;7439;50.804;4.602;2022-07-10T10:29:26;24.40;1.00
14699;DHT22;7439;50.804;4.602;2022-07-10T10:31:55;24.30;1.00
14699;DHT22;7439;50.804;4.602;2022-07-10T10:34:38;24.20;1.00
14699;DHT22;7439;50.804;4.602;2022-07-10T10:37:34;24.10;1.00
14699;DHT22;7439;50.804;4.602;2022-07-10T10:40:03;23.90;1.00
14699;DHT22;7439;50.804;4.602;2022-07-10T10:42:37;23.60;1.00
14699;DHT22;7439;50.804;4.602;2022-07-10T10:45:31;23.50;1.00
14699;DHT22;7439;50.804;4.602;2022-07-10T10:48:05;23.40;1.00
14699;DHT22;7439;50.804;4.602;2022-07-10T10:50:38;23.40;1.00
14699;DHT22;7439;50.804;4.602;2022-07-10T10:53:12;23.30;1.00
14699;DHT22;7439;50.804;4.602;2022-07-10T10:55:40;23.40;1.00
14699;DHT22;7439;50.804;4.602;2022-07-10T10:58:25;23.70;1.00
14699;DHT22;7439;50.804;4.602;2022-07-10T11:01:02;23.90;1.00
14699;DHT22;7439;50.804;4.602;2022-07-10T11:03:31;24.40;1.00
14699;DHT22;7439;50.804;4.602;2022-07-10T11:05:58;26.50;1.00
14699;DHT22;7439;50.804;4.602;2022-07-10T11:08:39;27.80;1.00
14699;DHT22;7439;50.804;4.602;2022-07-10T11:11:37;27.60;1.00
14699;DHT22;7439;50.804;4.602;2022-07-10T11:14:06;26.90;1.00
14699;DHT22;7439;50.804;4.602;2022-07-10T11:16:33;26.70;1.00
14699;DHT22;7439;50.804;4.602;2022-07-10T11:19:02;26.10;1.00
14699;DHT22;7439;50.804;4.602;2022-07-10T11:21:43;25.60;1.00
14699;DHT22;7439;50.804;4.602;2022-07-10T11:24:20;25.20;1.00
14699;DHT22;7439;50.804;4.602;2022-07-10T11:26:56;24.80;1.00
14699;DHT22;7439;50.804;4.602;2022-07-10T11:29:25;24.70;1.00
14699;DHT22;7439;50.804;4.602;2022-07-10T11:31:52;24.60;1.00
14699;DHT22;7439;50.804;4.602;2022-07-10T11:34:22;24.80;1.00
14699;DHT22;7439;50.804;4.602;2022-07-10T11:36:49;25.00;1.00
14699;DHT22;7439;50.804;4.602;2022-07-10T11:39:16;25.30;1.00
14699;DHT22;7439;50.804;4.602;2022-07-10T11:41:44;25.90;1.00
14699;DHT22;7439;50.804;4.602;2022-07-10T11:44:14;26.50;1.00
14699;DHT22;7439;50.804;4.602;2022-07-10T11:46:43;27.10;1.00
14699;DHT22;7439;50.804;4.602;2022-07-10T11:49:12;27.90;1.00
14699;DHT22;7439;50.804;4.602;2022-07-10T11:51:42;28.20;1.00
14699;DHT22;7439;50.804;4.602;2022-07-10T11:54:12;28.90;1.00
14699;DHT22;7439;50.804;4.602;2022-07-10T11:56:45;30.20;1.00
14699;DHT22;7439;50.804;4.602;2022-07-10T11:59:14;31.40;1.00
14699;DHT22;7439;50.804;4.602;2022-07-10T12:01:43;31.00;1.00
14699;DHT22;7439;50.804;4.602;2022-07-10T12:04:11;30.10;1.00
14699;DHT22;7439;50.804;4.602;2022-07-10T12:06:41;29.50;1.00
14699;DHT22;7439;50.804;4.602;2022-07-10T12:09:10;29.10;1.00
14699;DHT22;7439;50.804;4.602;2022-07-10T12:11:38;28.60;1.00
14699;DHT22;7439;50.804;4.602;2022-07-10T12:14:11;27.50;1.00
14699;DHT22;7439;50.804;4.602;2022-07-10T12:16:39;26.80;1.00
14699;DHT22;7439;50.804;4.602;2022-07-10T12:19:08;26.20;1.00
14699;DHT22;7439;50.804;4.602;2022-07-10T12:21:36;26.20;1.00
14699;DHT22;7439;50.804;4.602;2022-07-10T12:24:05;27.40;1.00
14699;DHT22;7439;50.804;4.602;2022-07-10T12:26:34;27.90;1.00
14699;DHT22;7439;50.804;4.602;2022-07-10T12:29:03;29.00;1.00
14699;DHT22;7439;50.804;4.602;2022-07-10T12:31:32;30.00;1.00
14699;DHT22;7439;50.804;4.602;2022-07-10T12:34:05;29.60;1.00
14699;DHT22;7439;50.804;4.602;2022-07-10T12:36:43;29.40;1.00
14699;DHT22;7439;50.804;4.602;2022-07-10T12:39:14;29.80;1.00
14699;DHT22;7439;50.804;4.602;2022-07-10T12:41:59;29.20;1.00
14699;DHT22;7439;50.804;4.602;2022-07-10T12:44:35;28.90;1.00
14699;DHT22;7439;50.804;4.602;2022-07-10T12:47:03;29.40;1.00
14699;DHT22;7439;50.804;4.602;2022-07-10T12:49:51;30.30;1.00
14699;DHT22;7439;50.804;4.602;2022-07-10T12:52:23;30.70;1.00
14699;DHT22;7439;50.804;4.602;2022-07-10T12:55:05;29.80;1.00
14699;DHT22;7439;50.804;4.602;2022-07-10T12:57:32;28.80;1.00
14699;DHT22;7439;50.804;4.602;2022-07-10T13:00:04;27.90;1.00
14699;DHT22;7439;50.804;4.602;2022-07-10T13:02:32;27.90;1.00
14699;DHT22;7439;50.804;4.602;2022-07-10T13:04:59;27.70;1.00
14699;DHT22;7439;50.804;4.602;2022-07-10T13:07:30;28.30;1.00
14699;DHT22;7439;50.804;4.602;2022-07-10T13:10:00;29.10;1.00
14699;DHT22;7439;50.804;4.602;2022-07-10T13:12:28;29.20;1.00
14699;DHT22;7439;50.804;4.602;2022-07-10T13:14:55;29.30;1.00
14699;DHT22;7439;50.804;4.602;2022-07-10T13:17:22;29.10;1.00
14699;DHT22;7439;50.804;4.602;2022-07-10T13:19:50;29.00;1.00
14699;DHT22;7439;50.804;4.602;2022-07-10T13:22:17;30.10;1.00
14699;DHT22;7439;50.804;4.602;2022-07-10T13:24:44;30.30;1.00
14699;DHT22;7439;50.804;4.602;2022-07-10T13:27:12;30.40;1.00
14699;DHT22;7439;50.804;4.602;2022-07-10T13:29:40;31.10;1.00
14699;DHT22;7439;50.804;4.602;2022-07-10T13:32:07;32.00;1.00
14699;DHT22;7439;50.804;4.602;2022-07-10T13:34:35;31.50;1.00
14699;DHT22;7439;50.804;4.602;2022-07-10T13:37:02;30.90;1.00
14699;DHT22;7439;50.804;4.602;2022-07-10T13:39:30;31.00;1.00
14699;DHT22;7439;50.804;4.602;2022-07-10T13:41:57;31.80;1.00
14699;DHT22;7439;50.804;4.602;2022-07-10T13:44:25;31.50;1.00
14699;DHT22;7439;50.804;4.602;2022-07-10T13:46:53;31.40;1.00
14699;DHT22;7439;50.804;4.602;2022-07-10T13:49:20;32.00;1.00
14699;DHT22;7439;50.804;4.602;2022-07-10T13:51:48;32.80;1.00
14699;DHT22;7439;50.804;4.602;2022-07-10T13:54:15;33.30;1.00
14699;DHT22;7439;50.804;4.602;2022-07-10T13:56:42;33.10;1.00
14699;DHT22;7439;50.804;4.602;2022-07-10T13:59:09;32.60;1.00
14699;DHT22;7439;50.804;4.602;2022-07-10T14:01:38;31.20;1.00
14699;DHT22;7439;50.804;4.602;2022-07-10T14:04:05;31.20;1.00
14699;DHT22;7439;50.804;4.602;2022-07-10T14:06:32;32.00;1.00
14699;DHT22;7439;50.804;4.602;2022-07-10T14:08:59;31.90;1.00
14699;DHT22;7439;50.804;4.602;2022-07-10T14:11:27;31.40;1.00
14699;DHT22;7439;50.804;4.602;2022-07-10T14:13:54;30.50;1.00
14699;DHT22;7439;50.804;4.602;2022-07-10T14:16:22;29.90;1.00
14699;DHT22;7439;50.804;4.602;2022-07-10T14:18:50;29.70;1.00
14699;DHT22;7439;50.804;4.602;2022-07-10T14:21:17;28.90;1.00
14699;DHT22;7439;50.804;4.602;2022-07-10T14:23:44;28.40;1.00
14699;DHT22;7439;50.804;4.602;2022-07-10T14:26:12;28.30;1.00
14699;DHT22;7439;50.804;4.602;2022-07-10T14:28:39;28.10;1.00
14699;DHT22;7439;50.804;4.602;2022-07-10T14:31:07;27.90;1.00
14699;DHT22;7439;50.804;4.602;2022-07-10T14:33:35;27.30;1.00
14699;DHT22;7439;50.804;4.602;2022-07-10T14:36:04;27.00;1.00
14699;DHT22;7439;50.804;4.602;2022-07-10T14:38:32;27.00;1.00
14699;DHT22;7439;50.804;4.602;2022-07-10T14:40:59;27.00;1.00
14699;DHT22;7439;50.804;4.602;2022-07-10T14:43:27;26.80;1.00
14699;DHT22;7439;50.804;4.602;2022-07-10T14:45:55;26.40;1.00
14699;DHT22;7439;50.804;4.602;2022-07-10T14:48:22;26.30;1.00
14699;DHT22;7439;50.804;4.602;2022-07-10T14:50:49;26.20;1.00
14699;DHT22;7439;50.804;4.602;2022-07-10T14:53:18;26.30;1.00
14699;DHT22;7439;50.804;4.602;2022-07-10T14:55:45;26.30;1.00
14699;DHT22;7439;50.804;4.602;2022-07-10T14:58:12;26.00;1.00
14699;DHT22;7439;50.804;4.602;2022-07-10T15:00:38;25.90;1.00
14699;DHT22;7439;50.804;4.602;2022-07-10T15:03:05;25.50;1.00
14699;DHT22;7439;50.804;4.602;2022-07-10T15:05:32;25.20;1.00
14699;DHT22;7439;50.804;4.602;2022-07-10T15:08:00;25.00;1.00
14699;DHT22;7439;50.804;4.602;2022-07-10T15:10:28;24.90;1.00
14699;DHT22;7439;50.804;4.602;2022-07-10T15:12:55;24.80;1.00
14699;DHT22;7439;50.804;4.602;2022-07-10T15:15:22;24.80;1.00
14699;DHT22;7439;50.804;4.602;2022-07-10T15:17:49;24.70;1.00
14699;DHT22;7439;50.804;4.602;2022-07-10T15:20:16;24.50;1.00
14699;DHT22;7439;50.804;4.602;2022-07-10T15:22:45;24.30;1.00
14699;DHT22;7439;50.804;4.602;2022-07-10T15:25:12;24.30;1.00
14699;DHT22;7439;50.804;4.602;2022-07-10T15:27:41;24.40;1.00
14699;DHT22;7439;50.804;4.602;2022-07-10T15:30:09;24.60;1.00
14699;DHT22;7439;50.804;4.602;2022-07-10T15:32:38;24.70;1.00
14699;DHT22;7439;50.804;4.602;2022-07-10T15:35:06;24.60;1.00
14699;DHT22;7439;50.804;4.602;2022-07-10T15:37:33;24.70;1.00
14699;DHT22;7439;50.804;4.602;2022-07-10T15:40:01;24.90;1.00
14699;DHT22;7439;50.804;4.602;2022-07-10T15:42:28;24.80;1.00
14699;DHT22;7439;50.804;4.602;2022-07-10T15:44:57;24.90;1.00
14699;DHT22;7439;50.804;4.602;2022-07-10T15:47:24;24.90;1.00
14699;DHT22;7439;50.804;4.602;2022-07-10T15:49:51;24.80;1.00
14699;DHT22;7439;50.804;4.602;2022-07-10T15:52:18;24.90;1.00
14699;DHT22;7439;50.804;4.602;2022-07-10T15:54:45;25.00;1.00
14699;DHT22;7439;50.804;4.602;2022-07-10T15:57:12;25.00;1.00
14699;DHT22;7439;50.804;4.602;2022-07-10T15:59:39;25.00;1.00
14699;DHT22;7439;50.804;4.602;2022-07-10T16:02:08;25.00;1.00
14699;DHT22;7439;50.804;4.602;2022-07-10T16:04:36;24.90;1.00
14699;DHT22;7439;50.804;4.602;2022-07-10T16:07:04;24.90;1.00
14699;DHT22;7439;50.804;4.602;2022-07-10T16:09:31;24.80;1.00